»·PEaware :: JZA1291 KSAN-KIFP

JZA1291 :: KSAN-KIFP

FLIGHT INFORMATION

Flight Status: Arrived
Operator:
Air Canada Jazz
More flights by this operator :: More flights under this callsign
Pilot: Cody A. (8484)
Aircraft: DEHAVILLAND DASH 8 400
(DH8D)
More flights by this aircraft type
Origin: KSAN San Diego Intl-Lindbergh
United States
Destination: KIFP Laughlin/Bullhead Intl
United States
More flights between these airports :: More routes between these airports
Route: BRDR7 JLI TRM J236 EED
File this flight plan on PilotEdge
Remarks:
Altitude:
(Current/Filed)
23,000ft
Speed:
(Current/Filed)
220kts
Departed: 06-Jan-16 08:24 PM
Arrived: 06-Jan-16 09:21 PM
Distance/Time
Traveled:
196nm/0:57
Distance/Time
To Go:
Arrived

Flight Plot

Page will automatically refresh every two minutes.


Map Options




Map Legend


Flown Route
Filed Route
Departure Airport
Arrival Airport
Navaid (VOR, NDB)
Fix

Horizontal Profiles

Position Reports

Time Latitude Longitude Heading Altitude Ground
Speed
06-Jan-16 19:36 32.732018 -117.195735 232 22ft 0kts
06-Jan-16 19:37 32.732018 -117.195735 232 22ft 0kts
06-Jan-16 19:38 32.732018 -117.195735 232 22ft 0kts
06-Jan-16 19:39 32.732018 -117.195735 232 22ft 0kts
06-Jan-16 19:40 32.732018 -117.195735 232 22ft 0kts
06-Jan-16 19:41 32.732018 -117.195735 232 22ft 0kts
06-Jan-16 19:42 32.732018 -117.195735 232 22ft 0kts
06-Jan-16 19:43 32.732018 -117.195735 232 22ft 0kts
06-Jan-16 19:44 32.732018 -117.195735 232 22ft 0kts
06-Jan-16 19:45 32.732018 -117.195735 232 22ft 0kts
06-Jan-16 19:46 32.732018 -117.195735 232 22ft 0kts
06-Jan-16 19:47 32.732018 -117.195735 232 22ft 0kts
06-Jan-16 19:48 32.732018 -117.195735 232 22ft 0kts
06-Jan-16 19:49 32.732018 -117.195735 232 22ft 0kts
06-Jan-16 19:50 32.732018 -117.195735 232 22ft 0kts
06-Jan-16 19:51 32.732018 -117.195735 232 22ft 0kts
06-Jan-16 19:52 32.732018 -117.195735 232 22ft 0kts
06-Jan-16 19:53 32.732018 -117.195735 232 22ft 0kts
06-Jan-16 19:53 32.732018 -117.195735 232 22ft 0kts
06-Jan-16 19:54 32.732018 -117.195735 232 22ft 0kts
06-Jan-16 19:55 32.732018 -117.195735 232 22ft 0kts
06-Jan-16 19:56 32.732018 -117.195735 232 22ft 0kts
06-Jan-16 19:57 32.732139 -117.195549 232 22ft 2kts
06-Jan-16 19:58 32.732366 -117.195184 233 22ft 0kts
06-Jan-16 19:59 32.732366 -117.195184 233 22ft 0kts
06-Jan-16 20:00 32.732366 -117.195184 233 22ft 0kts
06-Jan-16 20:01 32.732368 -117.195182 233 22ft 0kts
06-Jan-16 20:02 32.732970 -117.194570 14 22ft 0kts
06-Jan-16 20:03 32.732970 -117.194570 14 22ft 0kts
06-Jan-16 20:04 32.732970 -117.194570 14 22ft 0kts
06-Jan-16 20:05 32.732970 -117.194570 14 22ft 0kts
06-Jan-16 20:06 32.732970 -117.194570 14 22ft 0kts
06-Jan-16 20:07 32.732970 -117.194570 14 22ft 0kts
06-Jan-16 20:08 32.732970 -117.194570 14 22ft 0kts
06-Jan-16 20:09 32.732970 -117.194570 14 22ft 0kts
06-Jan-16 20:10 32.732970 -117.194570 14 22ft 0kts
06-Jan-16 20:11 32.732969 -117.194571 14 22ft 0kts
06-Jan-16 20:12 32.733462 -117.193429 108 22ft 17kts
06-Jan-16 20:13 32.732490 -117.189474 106 22ft 23kts
06-Jan-16 20:14 32.730739 -117.182241 105 22ft 13kts
06-Jan-16 20:15 32.729587 -117.177530 104 22ft 16kts
06-Jan-16 20:16 32.729595 -117.176498 68 22ft 0kts
06-Jan-16 20:18 32.729595 -117.176498 68 22ft 0kts
06-Jan-16 20:19 32.730424 -117.176783 285 22ft 15kts
06-Jan-16 20:20 32.738219 -117.208996 291 823ft 127kts
06-Jan-16 20:21 32.751545 -117.254881 290 2623ft 146kts
06-Jan-16 20:22 32.769015 -117.304622 290 4427ft 165kts
06-Jan-16 20:23 32.742599 -117.327646 140 6399ft 171kts
06-Jan-16 20:24 32.702025 -117.283610 135 8002ft 209kts
06-Jan-16 20:25 32.657614 -117.235274 135 9997ft 217kts
06-Jan-16 20:26 32.612012 -117.185620 135 11944ft 223kts
06-Jan-16 20:27 32.612378 -117.111959 74 13023ft 270kts
06-Jan-16 20:28 32.600386 -117.023610 122 13035ft 278kts
06-Jan-16 20:29 32.604455 -116.940445 60 13059ft 273kts
06-Jan-16 20:30 32.622680 -116.855842 79 14130ft 263kts
06-Jan-16 20:31 32.649762 -116.777554 39 15334ft 260kts
06-Jan-16 20:32 32.714316 -116.740425 18 16533ft 257kts
06-Jan-16 20:33 32.782724 -116.714921 16 17733ft 255kts
06-Jan-16 20:34 32.851573 -116.690552 17 18925ft 258kts
06-Jan-16 20:35 32.921506 -116.665037 16 20063ft 262kts
06-Jan-16 20:36 32.991363 -116.639647 15 21161ft 260kts
06-Jan-16 20:37 33.060419 -116.615037 15 22253ft 255kts
06-Jan-16 20:38 33.128887 -116.588451 22 22978ft 267kts
06-Jan-16 20:39 33.195431 -116.538791 34 23016ft 295kts
06-Jan-16 20:40 33.263622 -116.479084 35 23004ft 312kts
06-Jan-16 20:41 33.335414 -116.416357 34 22985ft 326kts
06-Jan-16 20:42 33.409336 -116.351945 34 22977ft 330kts
06-Jan-16 20:43 33.483723 -116.286915 35 22969ft 330kts
06-Jan-16 20:44 33.557768 -116.221905 35 22964ft 330kts
06-Jan-16 20:45 33.630348 -116.154719 43 22961ft 329kts
06-Jan-16 20:46 33.689503 -116.071188 49 22964ft 329kts
06-Jan-16 20:47 33.748012 -115.985694 49 22968ft 329kts
06-Jan-16 20:48 33.806509 -115.900541 49 22989ft 330kts
06-Jan-16 20:48 33.854925 -115.829940 49 23001ft 330kts
06-Jan-16 20:49 33.913557 -115.744199 49 23024ft 330kts
06-Jan-16 20:50 33.971991 -115.658562 49 23035ft 331kts
06-Jan-16 20:51 34.030433 -115.572711 49 23043ft 331kts
06-Jan-16 20:52 34.088795 -115.486769 49 23069ft 331kts
06-Jan-16 20:53 34.146916 -115.400979 49 23078ft 331kts
06-Jan-16 20:54 34.205089 -115.314902 49 23088ft 330kts
06-Jan-16 20:55 34.263107 -115.228849 49 23108ft 330kts
06-Jan-16 20:56 34.321008 -115.142762 49 23121ft 329kts
06-Jan-16 20:57 34.378536 -115.057126 49 23123ft 329kts
06-Jan-16 20:58 34.436631 -114.970213 49 23121ft 329kts
06-Jan-16 20:59 34.494199 -114.884009 50 23134ft 328kts
06-Jan-16 21:00 34.551417 -114.798131 50 22374ft 328kts
06-Jan-16 21:01 34.608292 -114.712525 50 21373ft 323kts
06-Jan-16 21:02 34.679628 -114.659729 10 19984ft 294kts
06-Jan-16 21:03 34.754325 -114.639877 12 18267ft 258kts
06-Jan-16 21:04 34.823864 -114.620574 12 16517ft 257kts
06-Jan-16 21:05 34.891089 -114.601846 12 14507ft 240kts
06-Jan-16 21:06 34.954400 -114.584362 12 12499ft 228kts
06-Jan-16 21:07 35.014641 -114.567538 12 10499ft 218kts
06-Jan-16 21:08 35.071893 -114.551493 12 8476ft 205kts
06-Jan-16 21:09 35.126700 -114.555239 320 6283ft 204kts
06-Jan-16 21:10 35.164146 -114.602720 323 4780ft 201kts
06-Jan-16 21:11 35.211209 -114.623184 348 3965ft 166kts
06-Jan-16 21:12 35.247062 -114.602094 51 3590ft 146kts
06-Jan-16 21:13 35.241385 -114.558303 153 3189ft 161kts
06-Jan-16 21:15 35.198377 -114.561484 182 1753ft 140kts
06-Jan-16 21:16 35.160581 -114.559701 171 703ft 105kts
06-Jan-16 21:17 35.150545 -114.558358 85 702ft 6kts
06-Jan-16 21:18 35.150548 -114.558307 85 702ft 2kts
06-Jan-16 21:19 35.153884 -114.558076 356 702ft 18kts
06-Jan-16 21:20 35.157963 -114.558392 355 702ft 18kts
06-Jan-16 21:21 35.162326 -114.557280 66 702ft 17kts
06-Jan-16 21:22 35.164156 -114.557286 359 702ft 1kts
06-Jan-16 21:23 35.164547 -114.556615 82 702ft 0kts
06-Jan-16 21:24 35.164547 -114.556615 82 702ft 0kts
06-Jan-16 21:25 35.164547 -114.556615 82 702ft 0kts
06-Jan-16 21:26 35.164547 -114.556615 82 702ft 0kts
06-Jan-16 21:27 35.164547 -114.556615 82 702ft 0kts
06-Jan-16 21:28 35.164547 -114.556615 82 702ft 0kts

Navigation Log

Ident Type
Flight plan parsing failed, navigation log unavailable